Time;durP1;ratioP1;P1;durP2;ratioP2;P2;SDS_P1;SDS_P2;PMS_P1;PMS_P2;Temp;Humidity;BMP_temperature;BMP_pressure;BME280_temperature;BME280_humidity;BME280_pressure;Samples;Min_cycle;Max_cycle;Signal;HPM_P1;HPM_P2
2021/12/16 00:10:19;;;;;;;;;;;4.4;81.6;;;;;;;;;
2021/12/16 00:30:12;;;;;;;;;;;4.4;81.3;;;;;;;;;
2021/12/16 00:35:07;;;;;;;;;;;4.2;81.8;;;;;;;;;
2021/12/16 00:40:08;;;;;;;;;;;4.3;81.4;;;;;;;;;
2021/12/16 00:45:29;;;;;;;;;;;4.3;81.8;;;;;;;;;
2021/12/16 00:50:21;;;;;;;;;;;4.3;81.9;;;;;;;;;
2021/12/16 00:55:19;;;;;;;;;;;4.3;81.6;;;;;;;;;
2021/12/16 01:00:11;;;;;;;;;;;4.3;81.2;;;;;;;;;
2021/12/16 01:05:32;;;;;;;;;;;4.2;82.2;;;;;;;;;
2021/12/16 01:35:17;;;;;;;;;;;4.2;82.2;;;;;;;;;
2021/12/16 01:40:21;;;;;;;;;;;4.2;82.8;;;;;;;;;
2021/12/16 01:45:47;;;;;;;;;;;4.2;81.6;;;;;;;;;
2021/12/16 01:50:11;;;;;;;;;;;4.2;82.3;;;;;;;;;
2021/12/16 01:55:11;;;;;;;;;;;4.2;82.2;;;;;;;;;
2021/12/16 02:00:11;;;;;;;;;;;4.2;82.6;;;;;;;;;
2021/12/16 02:05:23;;;;;;;;;;;4.1;82.0;;;;;;;;;
2021/12/16 02:10:23;;;;;;;;;;;4.2;82.4;;;;;;;;;
2021/12/16 02:35:25;;;;;;;;;;;4.0;82.5;;;;;;;;;
2021/12/16 02:40:07;;;;;;;;;;;4.1;83.0;;;;;;;;;
2021/12/16 02:50:07;;;;;;;;;;;4.0;83.6;;;;;;;;;
2021/12/16 02:55:08;;;;;;;;;;;4.0;83.1;;;;;;;;;
2021/12/16 03:00:11;;;;;;;;;;;4.0;83.0;;;;;;;;;
2021/12/16 03:05:09;;;;;;;;;;;4.0;83.4;;;;;;;;;
2021/12/16 03:10:45;;;;;;;;;;;4.0;82.5;;;;;;;;;
2021/12/16 03:15:15;;;;;;;;;;;4.1;83.0;;;;;;;;;
2021/12/16 03:20:15;;;;;;;;;;;4.0;83.1;;;;;;;;;
2021/12/16 03:25:17;;;;;;;;;;;4.0;83.3;;;;;;;;;
2021/12/16 03:30:47;;;;;;;;;;;4.0;82.9;;;;;;;;;
2021/12/16 03:35:26;;;;;;;;;;;4.0;82.8;;;;;;;;;
2021/12/16 03:40:09;;;;;;;;;;;4.0;82.4;;;;;;;;;
2021/12/16 03:46:25;;;;;;;;;;;4.0;82.4;;;;;;;;;
2021/12/16 03:50:10;;;;;;;;;;;3.9;83.0;;;;;;;;;
2021/12/16 03:55:09;;;;;;;;;;;3.9;82.8;;;;;;;;;
2021/12/16 04:00:08;;;;;;;;;;;3.8;82.7;;;;;;;;;
2021/12/16 04:05:08;;;;;;;;;;;3.8;82.6;;;;;;;;;
2021/12/16 04:10:09;;;;;;;;;;;3.9;82.4;;;;;;;;;
2021/12/16 04:15:07;;;;;;;;;;;3.9;82.2;;;;;;;;;
2021/12/16 04:20:09;;;;;;;;;;;3.9;82.1;;;;;;;;;
2021/12/16 04:25:08;;;;;;;;;;;3.9;81.8;;;;;;;;;
2021/12/16 04:30:08;;;;;;;;;;;3.9;81.6;;;;;;;;;
2021/12/16 04:35:07;;;;;;;;;;;3.9;81.9;;;;;;;;;
2021/12/16 04:40:09;;;;;;;;;;;3.8;81.4;;;;;;;;;
2021/12/16 04:45:09;;;;;;;;;;;3.8;81.9;;;;;;;;;
2021/12/16 04:50:08;;;;;;;;;;;3.8;81.7;;;;;;;;;
2021/12/16 04:55:08;;;;;;;;;;;3.8;82.2;;;;;;;;;
2021/12/16 05:00:09;;;;;;;;;;;3.7;82.0;;;;;;;;;
2021/12/16 05:05:07;;;;;;;;;;;3.7;82.2;;;;;;;;;
2021/12/16 05:10:09;;;;;;;;;;;3.7;81.2;;;;;;;;;
2021/12/16 05:15:10;;;;;;;;;;;3.7;81.1;;;;;;;;;
2021/12/16 05:20:10;;;;;;;;;;;3.7;80.8;;;;;;;;;
2021/12/16 05:25:13;;;;;;;;;;;3.6;81.1;;;;;;;;;
2021/12/16 05:30:07;;;;;;;;;;;3.5;81.6;;;;;;;;;
2021/12/16 05:35:07;;;;;;;;;;;3.6;80.8;;;;;;;;;
2021/12/16 05:40:07;;;;;;;;;;;3.6;80.9;;;;;;;;;
2021/12/16 05:45:08;;;;;;;;;;;3.4;81.7;;;;;;;;;
2021/12/16 05:50:08;;;;;;;;;;;3.5;81.7;;;;;;;;;
2021/12/16 05:55:08;;;;;;;;;;;3.5;81.3;;;;;;;;;
2021/12/16 06:00:08;;;;;;;;;;;3.5;81.0;;;;;;;;;
2021/12/16 06:05:07;;;;;;;;;;;3.4;81.6;;;;;;;;;
2021/12/16 06:10:08;;;;;;;;;;;3.4;82.1;;;;;;;;;
2021/12/16 06:15:19;;;;;;;;;;;3.4;82.8;;;;;;;;;
2021/12/16 06:30:10;;;;;;;;;;;3.6;81.6;;;;;;;;;
2021/12/16 06:35:08;;;;;;;;;;;3.5;81.8;;;;;;;;;
2021/12/16 06:40:08;;;;;;;;;;;3.5;82.0;;;;;;;;;
2021/12/16 06:45:11;;;;;;;;;;;3.5;82.1;;;;;;;;;
2021/12/16 06:50:08;;;;;;;;;;;3.5;81.0;;;;;;;;;
2021/12/16 06:55:12;;;;;;;;;;;3.5;81.4;;;;;;;;;
2021/12/16 07:00:12;;;;;;;;;;;3.5;81.5;;;;;;;;;
2021/12/16 07:05:08;;;;;;;;;;;3.6;81.1;;;;;;;;;
2021/12/16 07:10:09;;;;;;;;;;;3.5;82.7;;;;;;;;;
2021/12/16 07:15:08;;;;;;;;;;;3.5;80.8;;;;;;;;;
2021/12/16 07:20:09;;;;;;;;;;;3.5;79.4;;;;;;;;;
2021/12/16 07:25:07;;;;;;;;;;;3.7;77.8;;;;;;;;;
2021/12/16 07:30:08;;;;;;;;;;;3.6;78.5;;;;;;;;;
2021/12/16 07:35:08;;;;;;;;;;;3.6;79.0;;;;;;;;;
2021/12/16 07:40:08;;;;;;;;;;;3.6;77.5;;;;;;;;;
2021/12/16 07:45:07;;;;;;;;;;;3.7;78.0;;;;;;;;;
2021/12/16 07:50:08;;;;;;;;;;;3.6;78.0;;;;;;;;;
2021/12/16 07:55:08;;;;;;;;;;;3.7;78.7;;;;;;;;;
2021/12/16 08:00:11;;;;;;;;;;;3.7;77.7;;;;;;;;;
2021/12/16 08:05:08;;;;;;;;;;;3.7;77.9;;;;;;;;;
2021/12/16 08:10:08;;;;;;;;;;;3.7;77.5;;;;;;;;;
2021/12/16 08:15:08;;;;;;;;;;;3.7;78.6;;;;;;;;;
2021/12/16 08:20:07;;;;;;;;;;;3.8;78.3;;;;;;;;;
2021/12/16 08:25:07;;;;;;;;;;;3.9;78.2;;;;;;;;;
2021/12/16 08:30:08;;;;;;;;;;;3.8;78.4;;;;;;;;;
2021/12/16 08:35:07;;;;;;;;;;;4.0;78.2;;;;;;;;;
2021/12/16 08:40:11;;;;;;;;;;;4.0;77.5;;;;;;;;;
2021/12/16 08:45:09;;;;;;;;;;;4.0;76.5;;;;;;;;;
2021/12/16 08:50:31;;;;;;;;;;;4.0;76.5;;;;;;;;;
2021/12/16 09:00:10;;;;;;;;;;;4.2;75.5;;;;;;;;;
2021/12/16 09:05:07;;;;;;;;;;;4.5;74.2;;;;;;;;;
2021/12/16 09:10:07;;;;;;;;;;;4.5;74.6;;;;;;;;;
2021/12/16 09:15:08;;;;;;;;;;;4.5;74.9;;;;;;;;;
2021/12/16 09:20:08;;;;;;;;;;;4.4;74.9;;;;;;;;;
2021/12/16 09:25:08;;;;;;;;;;;4.4;74.7;;;;;;;;;
2021/12/16 09:30:09;;;;;;;;;;;4.3;75.9;;;;;;;;;
2021/12/16 09:35:08;;;;;;;;;;;4.3;75.4;;;;;;;;;
2021/12/16 09:40:10;;;;;;;;;;;4.3;75.7;;;;;;;;;
2021/12/16 09:45:08;;;;;;;;;;;4.3;75.1;;;;;;;;;
2021/12/16 09:50:08;;;;;;;;;;;4.2;75.5;;;;;;;;;
2021/12/16 09:55:07;;;;;;;;;;;4.3;76.4;;;;;;;;;
2021/12/16 10:00:09;;;;;;;;;;;4.3;75.8;;;;;;;;;
2021/12/16 10:05:08;;;;;;;;;;;4.3;76.4;;;;;;;;;
2021/12/16 10:10:08;;;;;;;;;;;4.4;77.2;;;;;;;;;
2021/12/16 10:17:23;;;;;;;;;;;4.4;78.0;;;;;;;;;
2021/12/16 10:20:17;;;;;;;;;;;4.5;77.9;;;;;;;;;
2021/12/16 10:25:24;;;;;;;;;;;4.5;77.2;;;;;;;;;
2021/12/16 10:30:07;;;;;;;;;;;4.5;75.7;;;;;;;;;
2021/12/16 10:35:13;;;;;;;;;;;4.8;75.9;;;;;;;;;
2021/12/16 10:40:24;;;;;;;;;;;4.9;75.6;;;;;;;;;
2021/12/16 10:45:07;;;;;;;;;;;5.1;73.7;;;;;;;;;
2021/12/16 10:50:13;;;;;;;;;;;5.6;72.1;;;;;;;;;
2021/12/16 10:55:07;;;;;;;;;;;5.5;72.9;;;;;;;;;
2021/12/16 11:00:10;;;;;;;;;;;7.2;66.1;;;;;;;;;
2021/12/16 11:05:11;;;;;;;;;;;6.8;66.2;;;;;;;;;
2021/12/16 11:10:09;;;;;;;;;;;6.3;66.9;;;;;;;;;
2021/12/16 11:15:10;;;;;;;;;;;6.0;67.6;;;;;;;;;
2021/12/16 11:20:11;;;;;;;;;;;5.8;68.5;;;;;;;;;
2021/12/16 11:25:14;;;;;;;;;;;5.7;69.4;;;;;;;;;
2021/12/16 11:30:25;;;;;;;;;;;5.8;69.4;;;;;;;;;
2021/12/16 11:35:25;;;;;;;;;;;5.8;69.7;;;;;;;;;
2021/12/16 11:40:07;;;;;;;;;;;5.7;70.3;;;;;;;;;
2021/12/16 11:45:07;;;;;;;;;;;5.7;70.7;;;;;;;;;
2021/12/16 11:50:07;;;;;;;;;;;5.6;70.4;;;;;;;;;
2021/12/16 11:55:08;;;;;;;;;;;5.7;70.6;;;;;;;;;
2021/12/16 12:00:09;;;;;;;;;;;5.7;71.1;;;;;;;;;
2021/12/16 12:05:17;;;;;;;;;;;5.7;71.6;;;;;;;;;
2021/12/16 12:10:07;;;;;;;;;;;5.7;70.7;;;;;;;;;
2021/12/16 12:15:10;;;;;;;;;;;5.4;70.0;;;;;;;;;
2021/12/16 12:20:07;;;;;;;;;;;5.6;68.8;;;;;;;;;
2021/12/16 12:25:07;;;;;;;;;;;5.7;68.2;;;;;;;;;
2021/12/16 12:30:07;;;;;;;;;;;5.6;68.7;;;;;;;;;
2021/12/16 12:35:09;;;;;;;;;;;5.5;68.7;;;;;;;;;
2021/12/16 12:40:08;;;;;;;;;;;5.6;69.1;;;;;;;;;
2021/12/16 12:45:08;;;;;;;;;;;5.6;69.7;;;;;;;;;
2021/12/16 12:50:09;;;;;;;;;;;5.6;69.6;;;;;;;;;
2021/12/16 12:55:08;;;;;;;;;;;5.6;69.5;;;;;;;;;
2021/12/16 13:00:08;;;;;;;;;;;5.6;70.0;;;;;;;;;
2021/12/16 13:05:08;;;;;;;;;;;5.6;69.9;;;;;;;;;
2021/12/16 13:10:10;;;;;;;;;;;5.7;70.7;;;;;;;;;
2021/12/16 13:15:20;;;;;;;;;;;5.6;71.5;;;;;;;;;
2021/12/16 13:25:58;;;;;;;;;;;5.7;70.3;;;;;;;;;
2021/12/16 13:30:19;;;;;;;;;;;5.6;71.0;;;;;;;;;
2021/12/16 13:35:12;;;;;;;;;;;5.7;71.0;;;;;;;;;
2021/12/16 13:40:16;;;;;;;;;;;5.7;70.4;;;;;;;;;
2021/12/16 13:45:11;;;;;;;;;;;5.6;70.6;;;;;;;;;
2021/12/16 14:01:10;;;;;;;;;;;5.7;71.3;;;;;;;;;
2021/12/16 14:05:20;;;;;;;;;;;5.6;71.5;;;;;;;;;
2021/12/16 14:15:16;;;;;;;;;;;5.6;71.9;;;;;;;;;
2021/12/16 14:25:17;;;;;;;;;;;5.6;71.1;;;;;;;;;
2021/12/16 14:35:18;;;;;;;;;;;5.7;71.1;;;;;;;;;
2021/12/16 14:40:23;;;;;;;;;;;5.7;71.3;;;;;;;;;
2021/12/16 14:45:25;;;;;;;;;;;5.6;71.8;;;;;;;;;
2021/12/16 14:50:07;;;;;;;;;;;5.5;72.8;;;;;;;;;
2021/12/16 14:55:09;;;;;;;;;;;5.5;74.8;;;;;;;;;
2021/12/16 15:00:08;;;;;;;;;;;5.4;73.9;;;;;;;;;
2021/12/16 15:05:19;;;;;;;;;;;5.4;74.6;;;;;;;;;
2021/12/16 15:10:12;;;;;;;;;;;5.3;75.5;;;;;;;;;
2021/12/16 15:15:19;;;;;;;;;;;5.4;76.9;;;;;;;;;
2021/12/16 15:35:53;;;;;;;;;;;5.1;75.8;;;;;;;;;
2021/12/16 15:40:28;;;;;;;;;;;5.1;75.8;;;;;;;;;
2021/12/16 15:45:09;;;;;;;;;;;5.1;75.4;;;;;;;;;
2021/12/16 15:50:08;;;;;;;;;;;5.0;75.3;;;;;;;;;
2021/12/16 15:55:19;;;;;;;;;;;5.0;75.5;;;;;;;;;
2021/12/16 16:00:08;;;;;;;;;;;4.9;75.7;;;;;;;;;
2021/12/16 16:05:08;;;;;;;;;;;4.9;75.6;;;;;;;;;
2021/12/16 16:10:08;;;;;;;;;;;4.9;75.9;;;;;;;;;
2021/12/16 16:15:16;;;;;;;;;;;4.9;75.6;;;;;;;;;
2021/12/16 16:20:07;;;;;;;;;;;4.8;75.5;;;;;;;;;
2021/12/16 16:25:07;;;;;;;;;;;4.9;75.6;;;;;;;;;
2021/12/16 16:30:07;;;;;;;;;;;4.9;75.4;;;;;;;;;
2021/12/16 16:35:14;;;;;;;;;;;4.8;76.0;;;;;;;;;
2021/12/16 16:40:12;;;;;;;;;;;4.8;76.2;;;;;;;;;
2021/12/16 16:45:08;;;;;;;;;;;4.6;76.6;;;;;;;;;
2021/12/16 16:50:10;;;;;;;;;;;4.7;76.4;;;;;;;;;
2021/12/16 16:55:09;;;;;;;;;;;4.6;76.8;;;;;;;;;
2021/12/16 17:00:09;;;;;;;;;;;4.7;76.8;;;;;;;;;
2021/12/16 17:05:10;;;;;;;;;;;4.6;77.1;;;;;;;;;
2021/12/16 17:10:28;;;;;;;;;;;4.6;77.0;;;;;;;;;
2021/12/16 17:15:27;;;;;;;;;;;4.6;77.1;;;;;;;;;
2021/12/16 17:20:11;;;;;;;;;;;4.6;77.2;;;;;;;;;
2021/12/16 17:25:08;;;;;;;;;;;4.5;77.3;;;;;;;;;
2021/12/16 17:30:11;;;;;;;;;;;4.5;77.4;;;;;;;;;
2021/12/16 17:35:09;;;;;;;;;;;4.5;77.5;;;;;;;;;
2021/12/16 17:40:09;;;;;;;;;;;4.5;77.7;;;;;;;;;
2021/12/16 17:45:09;;;;;;;;;;;4.4;77.8;;;;;;;;;
2021/12/16 17:50:08;;;;;;;;;;;4.4;77.6;;;;;;;;;
2021/12/16 17:55:08;;;;;;;;;;;4.4;78.2;;;;;;;;;
2021/12/16 18:00:09;;;;;;;;;;;4.4;78.2;;;;;;;;;
2021/12/16 18:05:07;;;;;;;;;;;4.4;78.0;;;;;;;;;
2021/12/16 18:10:07;;;;;;;;;;;4.4;78.6;;;;;;;;;
2021/12/16 18:15:08;;;;;;;;;;;4.4;78.7;;;;;;;;;
2021/12/16 18:20:10;;;;;;;;;;;4.3;79.2;;;;;;;;;
2021/12/16 18:25:09;;;;;;;;;;;4.3;79.0;;;;;;;;;
2021/12/16 18:30:10;;;;;;;;;;;4.3;79.4;;;;;;;;;
2021/12/16 18:35:09;;;;;;;;;;;4.3;79.9;;;;;;;;;
2021/12/16 18:40:08;;;;;;;;;;;4.2;79.7;;;;;;;;;
2021/12/16 18:45:09;;;;;;;;;;;4.2;79.5;;;;;;;;;
2021/12/16 18:50:16;;;;;;;;;;;4.2;79.7;;;;;;;;;
2021/12/16 18:55:07;;;;;;;;;;;4.3;80.0;;;;;;;;;
2021/12/16 19:00:08;;;;;;;;;;;4.3;79.6;;;;;;;;;
2021/12/16 19:05:08;;;;;;;;;;;4.3;79.7;;;;;;;;;
2021/12/16 19:10:09;;;;;;;;;;;4.3;79.6;;;;;;;;;
2021/12/16 19:15:09;;;;;;;;;;;4.2;79.6;;;;;;;;;
2021/12/16 19:20:08;;;;;;;;;;;4.2;79.5;;;;;;;;;
2021/12/16 19:25:08;;;;;;;;;;;4.2;80.0;;;;;;;;;
2021/12/16 19:30:09;;;;;;;;;;;4.2;80.1;;;;;;;;;
2021/12/16 19:35:09;;;;;;;;;;;4.2;80.0;;;;;;;;;
2021/12/16 19:40:10;;;;;;;;;;;4.1;79.8;;;;;;;;;
2021/12/16 19:45:07;;;;;;;;;;;4.1;79.7;;;;;;;;;
2021/12/16 19:50:07;;;;;;;;;;;4.1;79.8;;;;;;;;;
2021/12/16 19:55:07;;;;;;;;;;;4.0;79.8;;;;;;;;;
2021/12/16 20:00:09;;;;;;;;;;;4.0;79.8;;;;;;;;;
2021/12/16 20:05:07;;;;;;;;;;;4.0;80.3;;;;;;;;;
2021/12/16 20:10:09;;;;;;;;;;;4.0;79.3;;;;;;;;;
2021/12/16 20:15:09;;;;;;;;;;;4.0;79.4;;;;;;;;;
2021/12/16 20:20:08;;;;;;;;;;;4.0;79.6;;;;;;;;;
2021/12/16 20:25:10;;;;;;;;;;;3.9;79.6;;;;;;;;;
2021/12/16 20:30:09;;;;;;;;;;;3.9;79.6;;;;;;;;;
2021/12/16 20:35:14;;;;;;;;;;;3.9;79.5;;;;;;;;;
2021/12/16 20:40:09;;;;;;;;;;;3.9;79.3;;;;;;;;;
2021/12/16 20:45:13;;;;;;;;;;;3.8;79.1;;;;;;;;;
2021/12/16 20:50:11;;;;;;;;;;;3.8;79.5;;;;;;;;;
2021/12/16 20:55:11;;;;;;;;;;;3.8;79.4;;;;;;;;;
2021/12/16 21:00:08;;;;;;;;;;;3.7;79.4;;;;;;;;;
2021/12/16 21:10:07;;;;;;;;;;;3.6;79.2;;;;;;;;;
2021/12/16 21:15:08;;;;;;;;;;;3.5;80.0;;;;;;;;;
2021/12/16 21:20:09;;;;;;;;;;;3.3;79.9;;;;;;;;;
2021/12/16 21:25:15;;;;;;;;;;;3.3;80.2;;;;;;;;;
2021/12/16 21:30:09;;;;;;;;;;;3.2;79.7;;;;;;;;;
2021/12/16 21:35:17;;;;;;;;;;;3.0;80.1;;;;;;;;;
2021/12/16 21:40:08;;;;;;;;;;;3.1;80.2;;;;;;;;;
2021/12/16 21:50:09;;;;;;;;;;;2.9;80.0;;;;;;;;;
2021/12/16 21:55:10;;;;;;;;;;;2.8;79.7;;;;;;;;;
2021/12/16 22:00:11;;;;;;;;;;;2.8;79.3;;;;;;;;;
2021/12/16 22:05:10;;;;;;;;;;;2.8;79.2;;;;;;;;;
2021/12/16 22:10:08;;;;;;;;;;;2.7;79.3;;;;;;;;;
2021/12/16 22:15:10;;;;;;;;;;;2.7;79.4;;;;;;;;;
2021/12/16 22:20:10;;;;;;;;;;;2.4;80.9;;;;;;;;;
2021/12/16 22:25:08;;;;;;;;;;;2.6;80.4;;;;;;;;;
2021/12/16 22:30:08;;;;;;;;;;;2.7;79.8;;;;;;;;;
2021/12/16 22:40:10;;;;;;;;;;;2.7;79.8;;;;;;;;;
2021/12/16 22:45:08;;;;;;;;;;;2.7;79.6;;;;;;;;;
2021/12/16 22:50:09;;;;;;;;;;;2.7;81.0;;;;;;;;;
2021/12/16 22:55:09;;;;;;;;;;;2.7;80.6;;;;;;;;;
2021/12/16 23:00:12;;;;;;;;;;;2.7;80.3;;;;;;;;;
2021/12/16 23:05:09;;;;;;;;;;;2.7;80.6;;;;;;;;;
2021/12/16 23:10:10;;;;;;;;;;;2.8;80.6;;;;;;;;;
2021/12/16 23:15:28;;;;;;;;;;;2.7;81.5;;;;;;;;;
2021/12/16 23:25:09;;;;;;;;;;;2.8;81.6;;;;;;;;;
2021/12/16 23:30:08;;;;;;;;;;;2.8;81.9;;;;;;;;;
2021/12/16 23:35:08;;;;;;;;;;;2.8;82.3;;;;;;;;;
2021/12/16 23:40:10;;;;;;;;;;;2.9;82.5;;;;;;;;;
2021/12/16 23:45:48;;;;;;;;;;;3.0;82.1;;;;;;;;;
2021/12/16 23:55:08;;;;;;;;;;;3.1;82.3;;;;;;;;;
